sensor_id;sensor_type;location;lat;lon;timestamp;P1;durP1;ratioP1;P2;durP2;ratioP2
15067;SDS011;7633;60.024;18.770;2023-04-30T00:01:26;0.20;;;0.20;;
15067;SDS011;7633;60.024;18.770;2023-04-30T00:03:55;0.10;;;0.10;;
15067;SDS011;7633;60.024;18.770;2023-04-30T00:06:25;0.10;;;0.10;;
15067;SDS011;7633;60.024;18.770;2023-04-30T00:08:55;0.17;;;0.17;;
15067;SDS011;7633;60.024;18.770;2023-04-30T00:11:21;0.13;;;0.10;;
15067;SDS011;7633;60.024;18.770;2023-04-30T00:13:46;0.20;;;0.20;;
15067;SDS011;7633;60.024;18.770;2023-04-30T00:16:15;0.20;;;0.20;;
15067;SDS011;7633;60.024;18.770;2023-04-30T00:18:47;0.17;;;0.17;;
15067;SDS011;7633;60.024;18.770;2023-04-30T00:21:16;0.10;;;0.10;;
15067;SDS011;7633;60.024;18.770;2023-04-30T00:23:45;0.30;;;0.30;;
15067;SDS011;7633;60.024;18.770;2023-04-30T00:26:11;0.10;;;0.10;;
15067;SDS011;7633;60.024;18.770;2023-04-30T00:28:38;0.13;;;0.13;;
15067;SDS011;7633;60.024;18.770;2023-04-30T00:31:07;0.30;;;0.30;;
15067;SDS011;7633;60.024;18.770;2023-04-30T00:33:38;0.10;;;0.10;;
15067;SDS011;7633;60.024;18.770;2023-04-30T00:36:07;0.17;;;0.17;;
15067;SDS011;7633;60.024;18.770;2023-04-30T00:38:41;0.10;;;0.10;;
15067;SDS011;7633;60.024;18.770;2023-04-30T00:41:15;0.10;;;0.10;;
15067;SDS011;7633;60.024;18.770;2023-04-30T00:43:44;0.10;;;0.10;;
15067;SDS011;7633;60.024;18.770;2023-04-30T00:46:16;0.20;;;0.20;;
15067;SDS011;7633;60.024;18.770;2023-04-30T00:48:46;0.10;;;0.10;;
15067;SDS011;7633;60.024;18.770;2023-04-30T00:51:20;0.10;;;0.10;;
15067;SDS011;7633;60.024;18.770;2023-04-30T00:53:52;0.13;;;0.13;;
15067;SDS011;7633;60.024;18.770;2023-04-30T00:56:20;0.20;;;0.20;;
15067;SDS011;7633;60.024;18.770;2023-04-30T00:58:52;0.10;;;0.10;;
15067;SDS011;7633;60.024;18.770;2023-04-30T01:01:24;0.20;;;0.20;;
15067;SDS011;7633;60.024;18.770;2023-04-30T01:03:55;0.20;;;0.20;;
15067;SDS011;7633;60.024;18.770;2023-04-30T01:06:21;0.30;;;0.27;;
15067;SDS011;7633;60.024;18.770;2023-04-30T01:08:48;0.20;;;0.20;;
15067;SDS011;7633;60.024;18.770;2023-04-30T01:16:46;0.20;;;0.20;;
15067;SDS011;7633;60.024;18.770;2023-04-30T01:21:57;0.10;;;0.10;;
15067;SDS011;7633;60.024;18.770;2023-04-30T01:29:29;0.30;;;0.20;;
15067;SDS011;7633;60.024;18.770;2023-04-30T01:32:03;0.20;;;0.20;;
15067;SDS011;7633;60.024;18.770;2023-04-30T01:34:31;0.20;;;0.20;;
15067;SDS011;7633;60.024;18.770;2023-04-30T01:37:46;0.30;;;0.30;;
15067;SDS011;7633;60.024;18.770;2023-04-30T01:39:49;0.40;;;0.40;;
15067;SDS011;7633;60.024;18.770;2023-04-30T01:42:44;0.43;;;0.30;;
15067;SDS011;7633;60.024;18.770;2023-04-30T01:50:43;0.20;;;0.20;;
15067;SDS011;7633;60.024;18.770;2023-04-30T01:53:22;0.50;;;0.50;;
15067;SDS011;7633;60.024;18.770;2023-04-30T01:58:25;1.27;;;0.40;;
15067;SDS011;7633;60.024;18.770;2023-04-30T02:00:51;0.40;;;0.40;;
15067;SDS011;7633;60.024;18.770;2023-04-30T02:03:17;0.40;;;0.40;;
15067;SDS011;7633;60.024;18.770;2023-04-30T02:05:46;0.47;;;0.40;;
15067;SDS011;7633;60.024;18.770;2023-04-30T02:08:14;0.27;;;0.27;;
15067;SDS011;7633;60.024;18.770;2023-04-30T02:10:46;0.40;;;0.40;;
15067;SDS011;7633;60.024;18.770;2023-04-30T02:13:15;0.40;;;0.40;;
15067;SDS011;7633;60.024;18.770;2023-04-30T02:15:46;0.40;;;0.30;;
15067;SDS011;7633;60.024;18.770;2023-04-30T02:18:15;0.53;;;0.40;;
15067;SDS011;7633;60.024;18.770;2023-04-30T02:20:41;0.60;;;0.60;;
15067;SDS011;7633;60.024;18.770;2023-04-30T02:23:07;0.30;;;0.30;;
15067;SDS011;7633;60.024;18.770;2023-04-30T02:25:33;1.10;;;0.50;;
15067;SDS011;7633;60.024;18.770;2023-04-30T02:28:01;0.30;;;0.30;;
15067;SDS011;7633;60.024;18.770;2023-04-30T02:30:27;0.50;;;0.40;;
15067;SDS011;7633;60.024;18.770;2023-04-30T02:32:53;1.20;;;0.77;;
15067;SDS011;7633;60.024;18.770;2023-04-30T02:35:18;0.50;;;0.40;;
15067;SDS011;7633;60.024;18.770;2023-04-30T02:37:43;0.53;;;0.53;;
15067;SDS011;7633;60.024;18.770;2023-04-30T02:40:08;0.50;;;0.50;;
15067;SDS011;7633;60.024;18.770;2023-04-30T02:42:34;0.20;;;0.20;;
15067;SDS011;7633;60.024;18.770;2023-04-30T02:45:00;0.57;;;0.57;;
15067;SDS011;7633;60.024;18.770;2023-04-30T02:47:25;0.73;;;0.70;;
15067;SDS011;7633;60.024;18.770;2023-04-30T02:49:50;0.90;;;0.60;;
15067;SDS011;7633;60.024;18.770;2023-04-30T02:52:16;1.70;;;0.53;;
15067;SDS011;7633;60.024;18.770;2023-04-30T02:54:42;0.70;;;0.60;;
15067;SDS011;7633;60.024;18.770;2023-04-30T02:57:07;0.50;;;0.50;;
15067;SDS011;7633;60.024;18.770;2023-04-30T02:59:32;0.70;;;0.70;;
15067;SDS011;7633;60.024;18.770;2023-04-30T03:01:58;1.17;;;0.80;;
15067;SDS011;7633;60.024;18.770;2023-04-30T03:04:23;0.60;;;0.60;;
15067;SDS011;7633;60.024;18.770;2023-04-30T03:06:49;0.77;;;0.70;;
15067;SDS011;7633;60.024;18.770;2023-04-30T03:09:14;0.57;;;0.57;;
15067;SDS011;7633;60.024;18.770;2023-04-30T03:11:40;0.70;;;0.70;;
15067;SDS011;7633;60.024;18.770;2023-04-30T03:14:05;0.87;;;0.63;;
15067;SDS011;7633;60.024;18.770;2023-04-30T03:16:31;0.73;;;0.73;;
15067;SDS011;7633;60.024;18.770;2023-04-30T03:18:56;1.93;;;1.00;;
15067;SDS011;7633;60.024;18.770;2023-04-30T03:21:21;0.90;;;0.80;;
15067;SDS011;7633;60.024;18.770;2023-04-30T03:23:47;0.70;;;0.70;;
15067;SDS011;7633;60.024;18.770;2023-04-30T03:26:12;0.83;;;0.80;;
15067;SDS011;7633;60.024;18.770;2023-04-30T03:28:38;0.70;;;0.70;;
15067;SDS011;7633;60.024;18.770;2023-04-30T03:31:03;0.77;;;0.77;;
15067;SDS011;7633;60.024;18.770;2023-04-30T03:33:31;0.80;;;0.80;;
15067;SDS011;7633;60.024;18.770;2023-04-30T03:35:57;1.03;;;0.50;;
15067;SDS011;7633;60.024;18.770;2023-04-30T03:38:22;1.20;;;0.70;;
15067;SDS011;7633;60.024;18.770;2023-04-30T03:40:47;0.73;;;0.70;;
15067;SDS011;7633;60.024;18.770;2023-04-30T03:43:13;0.43;;;0.43;;
15067;SDS011;7633;60.024;18.770;2023-04-30T03:45:38;1.37;;;0.63;;
15067;SDS011;7633;60.024;18.770;2023-04-30T03:48:03;0.90;;;0.90;;
15067;SDS011;7633;60.024;18.770;2023-04-30T03:50:29;1.70;;;1.10;;
15067;SDS011;7633;60.024;18.770;2023-04-30T03:52:54;1.70;;;0.80;;
15067;SDS011;7633;60.024;18.770;2023-04-30T03:55:19;0.80;;;0.70;;
15067;SDS011;7633;60.024;18.770;2023-04-30T03:57:45;0.60;;;0.60;;
15067;SDS011;7633;60.024;18.770;2023-04-30T04:00:10;0.80;;;0.70;;
15067;SDS011;7633;60.024;18.770;2023-04-30T04:02:37;0.50;;;0.50;;
15067;SDS011;7633;60.024;18.770;2023-04-30T04:05:03;0.60;;;0.60;;
15067;SDS011;7633;60.024;18.770;2023-04-30T04:07:28;0.50;;;0.37;;
15067;SDS011;7633;60.024;18.770;2023-04-30T04:09:53;0.60;;;0.40;;
15067;SDS011;7633;60.024;18.770;2023-04-30T04:12:19;0.53;;;0.50;;
15067;SDS011;7633;60.024;18.770;2023-04-30T04:14:44;1.10;;;0.70;;
15067;SDS011;7633;60.024;18.770;2023-04-30T04:17:10;0.97;;;0.60;;
15067;SDS011;7633;60.024;18.770;2023-04-30T04:19:35;0.53;;;0.50;;
15067;SDS011;7633;60.024;18.770;2023-04-30T04:22:01;1.33;;;0.70;;
15067;SDS011;7633;60.024;18.770;2023-04-30T04:24:26;1.37;;;0.60;;
15067;SDS011;7633;60.024;18.770;2023-04-30T04:26:52;0.63;;;0.60;;
15067;SDS011;7633;60.024;18.770;2023-04-30T04:29:17;1.03;;;0.93;;
15067;SDS011;7633;60.024;18.770;2023-04-30T04:31:43;0.23;;;0.23;;
15067;SDS011;7633;60.024;18.770;2023-04-30T04:34:08;0.50;;;0.50;;
15067;SDS011;7633;60.024;18.770;2023-04-30T04:36:33;0.60;;;0.60;;
15067;SDS011;7633;60.024;18.770;2023-04-30T04:38:59;0.30;;;0.30;;
15067;SDS011;7633;60.024;18.770;2023-04-30T04:41:28;0.60;;;0.60;;
15067;SDS011;7633;60.024;18.770;2023-04-30T04:43:53;0.60;;;0.60;;
15067;SDS011;7633;60.024;18.770;2023-04-30T04:46:20;0.70;;;0.70;;
15067;SDS011;7633;60.024;18.770;2023-04-30T04:48:46;0.50;;;0.50;;
15067;SDS011;7633;60.024;18.770;2023-04-30T04:51:12;0.60;;;0.60;;
15067;SDS011;7633;60.024;18.770;2023-04-30T04:53:37;0.40;;;0.40;;
15067;SDS011;7633;60.024;18.770;2023-04-30T04:56:02;0.63;;;0.50;;
15067;SDS011;7633;60.024;18.770;2023-04-30T04:58:28;0.47;;;0.40;;
15067;SDS011;7633;60.024;18.770;2023-04-30T05:00:53;0.47;;;0.47;;
15067;SDS011;7633;60.024;18.770;2023-04-30T05:03:19;1.53;;;0.43;;
15067;SDS011;7633;60.024;18.770;2023-04-30T05:05:45;0.80;;;0.80;;
15067;SDS011;7633;60.024;18.770;2023-04-30T05:08:10;0.60;;;0.60;;
15067;SDS011;7633;60.024;18.770;2023-04-30T05:10:36;0.30;;;0.30;;
15067;SDS011;7633;60.024;18.770;2023-04-30T05:13:01;0.87;;;0.30;;
15067;SDS011;7633;60.024;18.770;2023-04-30T05:15:26;0.50;;;0.50;;
15067;SDS011;7633;60.024;18.770;2023-04-30T05:17:52;0.70;;;0.60;;
15067;SDS011;7633;60.024;18.770;2023-04-30T05:20:17;0.30;;;0.30;;
15067;SDS011;7633;60.024;18.770;2023-04-30T05:22:42;1.10;;;0.60;;
15067;SDS011;7633;60.024;18.770;2023-04-30T05:25:08;0.33;;;0.33;;
15067;SDS011;7633;60.024;18.770;2023-04-30T05:27:33;0.67;;;0.60;;
15067;SDS011;7633;60.024;18.770;2023-04-30T05:29:59;0.60;;;0.60;;
15067;SDS011;7633;60.024;18.770;2023-04-30T05:32:25;0.60;;;0.60;;
15067;SDS011;7633;60.024;18.770;2023-04-30T05:34:51;0.70;;;0.70;;
15067;SDS011;7633;60.024;18.770;2023-04-30T05:37:17;0.30;;;0.30;;
15067;SDS011;7633;60.024;18.770;2023-04-30T05:39:44;0.70;;;0.70;;
15067;SDS011;7633;60.024;18.770;2023-04-30T05:42:09;0.43;;;0.43;;
15067;SDS011;7633;60.024;18.770;2023-04-30T05:44:34;0.50;;;0.50;;
15067;SDS011;7633;60.024;18.770;2023-04-30T05:47:00;0.57;;;0.57;;
15067;SDS011;7633;60.024;18.770;2023-04-30T05:49:25;0.70;;;0.60;;
15067;SDS011;7633;60.024;18.770;2023-04-30T05:51:51;0.70;;;0.70;;
15067;SDS011;7633;60.024;18.770;2023-04-30T05:54:16;0.77;;;0.60;;
15067;SDS011;7633;60.024;18.770;2023-04-30T05:56:41;0.60;;;0.60;;
15067;SDS011;7633;60.024;18.770;2023-04-30T05:59:07;0.97;;;0.73;;
15067;SDS011;7633;60.024;18.770;2023-04-30T06:01:32;0.77;;;0.77;;
15067;SDS011;7633;60.024;18.770;2023-04-30T06:03:57;0.83;;;0.40;;
15067;SDS011;7633;60.024;18.770;2023-04-30T06:06:25;0.87;;;0.77;;
15067;SDS011;7633;60.024;18.770;2023-04-30T06:08:51;0.60;;;0.60;;
15067;SDS011;7633;60.024;18.770;2023-04-30T06:11:16;0.60;;;0.50;;
15067;SDS011;7633;60.024;18.770;2023-04-30T06:13:41;0.80;;;0.80;;
15067;SDS011;7633;60.024;18.770;2023-04-30T06:16:07;0.57;;;0.40;;
15067;SDS011;7633;60.024;18.770;2023-04-30T06:18:32;0.40;;;0.40;;
15067;SDS011;7633;60.024;18.770;2023-04-30T06:20:58;1.00;;;0.70;;
15067;SDS011;7633;60.024;18.770;2023-04-30T06:23:23;1.57;;;0.80;;
15067;SDS011;7633;60.024;18.770;2023-04-30T06:25:48;0.77;;;0.70;;
15067;SDS011;7633;60.024;18.770;2023-04-30T06:28:14;1.23;;;0.43;;
15067;SDS011;7633;60.024;18.770;2023-04-30T06:30:40;0.80;;;0.73;;
15067;SDS011;7633;60.024;18.770;2023-04-30T06:33:05;0.67;;;0.67;;
15067;SDS011;7633;60.024;18.770;2023-04-30T06:35:31;0.70;;;0.60;;
15067;SDS011;7633;60.024;18.770;2023-04-30T06:37:56;0.80;;;0.70;;
15067;SDS011;7633;60.024;18.770;2023-04-30T06:40:21;0.70;;;0.60;;
15067;SDS011;7633;60.024;18.770;2023-04-30T06:42:46;0.50;;;0.50;;
15067;SDS011;7633;60.024;18.770;2023-04-30T06:45:12;1.20;;;0.60;;
15067;SDS011;7633;60.024;18.770;2023-04-30T06:47:39;0.90;;;0.60;;
15067;SDS011;7633;60.024;18.770;2023-04-30T06:50:06;1.00;;;0.87;;
15067;SDS011;7633;60.024;18.770;2023-04-30T06:52:32;0.70;;;0.70;;
15067;SDS011;7633;60.024;18.770;2023-04-30T06:54:57;0.50;;;0.50;;
15067;SDS011;7633;60.024;18.770;2023-04-30T06:57:22;0.30;;;0.30;;
15067;SDS011;7633;60.024;18.770;2023-04-30T06:59:48;0.60;;;0.60;;
15067;SDS011;7633;60.024;18.770;2023-04-30T07:02:14;0.70;;;0.63;;
15067;SDS011;7633;60.024;18.770;2023-04-30T07:04:40;0.80;;;0.70;;
15067;SDS011;7633;60.024;18.770;2023-04-30T07:07:05;1.03;;;0.53;;
15067;SDS011;7633;60.024;18.770;2023-04-30T07:09:30;0.70;;;0.70;;
15067;SDS011;7633;60.024;18.770;2023-04-30T07:11:56;1.13;;;0.53;;
15067;SDS011;7633;60.024;18.770;2023-04-30T07:14:22;0.60;;;0.60;;
15067;SDS011;7633;60.024;18.770;2023-04-30T07:16:51;0.90;;;0.70;;
15067;SDS011;7633;60.024;18.770;2023-04-30T07:19:16;0.80;;;0.70;;
15067;SDS011;7633;60.024;18.770;2023-04-30T07:21:41;0.57;;;0.57;;
15067;SDS011;7633;60.024;18.770;2023-04-30T07:24:07;0.97;;;0.60;;
15067;SDS011;7633;60.024;18.770;2023-04-30T07:26:32;0.57;;;0.57;;
15067;SDS011;7633;60.024;18.770;2023-04-30T07:28:58;1.03;;;0.80;;
15067;SDS011;7633;60.024;18.770;2023-04-30T07:31:23;0.67;;;0.67;;
15067;SDS011;7633;60.024;18.770;2023-04-30T07:33:50;0.70;;;0.60;;
15067;SDS011;7633;60.024;18.770;2023-04-30T07:36:16;0.90;;;0.70;;
15067;SDS011;7633;60.024;18.770;2023-04-30T07:38:41;0.37;;;0.37;;
15067;SDS011;7633;60.024;18.770;2023-04-30T07:41:06;1.83;;;1.10;;
15067;SDS011;7633;60.024;18.770;2023-04-30T07:43:33;0.73;;;0.67;;
15067;SDS011;7633;60.024;18.770;2023-04-30T07:45:59;2.13;;;0.60;;
15067;SDS011;7633;60.024;18.770;2023-04-30T07:48:24;1.23;;;0.90;;
15067;SDS011;7633;60.024;18.770;2023-04-30T07:50:50;1.13;;;0.60;;
15067;SDS011;7633;60.024;18.770;2023-04-30T07:53:15;0.80;;;0.80;;
15067;SDS011;7633;60.024;18.770;2023-04-30T07:55:41;0.67;;;0.60;;
15067;SDS011;7633;60.024;18.770;2023-04-30T07:58:06;1.07;;;0.80;;
15067;SDS011;7633;60.024;18.770;2023-04-30T08:00:31;1.47;;;0.70;;
15067;SDS011;7633;60.024;18.770;2023-04-30T08:02:57;0.47;;;0.43;;
15067;SDS011;7633;60.024;18.770;2023-04-30T08:05:23;1.27;;;0.70;;
15067;SDS011;7633;60.024;18.770;2023-04-30T08:07:48;1.43;;;0.80;;
15067;SDS011;7633;60.024;18.770;2023-04-30T08:10:14;0.77;;;0.67;;
15067;SDS011;7633;60.024;18.770;2023-04-30T08:12:39;1.23;;;0.80;;
15067;SDS011;7633;60.024;18.770;2023-04-30T08:15:06;0.80;;;0.70;;
15067;SDS011;7633;60.024;18.770;2023-04-30T08:17:32;1.67;;;0.93;;
15067;SDS011;7633;60.024;18.770;2023-04-30T08:19:57;1.87;;;0.90;;
15067;SDS011;7633;60.024;18.770;2023-04-30T08:22:23;1.40;;;0.60;;
15067;SDS011;7633;60.024;18.770;2023-04-30T08:24:48;0.70;;;0.70;;
15067;SDS011;7633;60.024;18.770;2023-04-30T08:27:14;1.23;;;0.93;;
15067;SDS011;7633;60.024;18.770;2023-04-30T08:29:39;0.73;;;0.73;;
15067;SDS011;7633;60.024;18.770;2023-04-30T08:32:05;0.53;;;0.53;;
15067;SDS011;7633;60.024;18.770;2023-04-30T08:34:30;0.67;;;0.67;;
15067;SDS011;7633;60.024;18.770;2023-04-30T08:36:56;1.13;;;0.90;;
15067;SDS011;7633;60.024;18.770;2023-04-30T08:39:21;1.30;;;0.93;;
15067;SDS011;7633;60.024;18.770;2023-04-30T08:41:46;0.80;;;0.77;;
15067;SDS011;7633;60.024;18.770;2023-04-30T08:44:16;1.13;;;0.80;;
15067;SDS011;7633;60.024;18.770;2023-04-30T08:46:43;1.17;;;0.87;;
15067;SDS011;7633;60.024;18.770;2023-04-30T08:49:09;1.30;;;0.50;;
15067;SDS011;7633;60.024;18.770;2023-04-30T08:51:34;1.33;;;0.90;;
15067;SDS011;7633;60.024;18.770;2023-04-30T08:54:00;0.50;;;0.50;;
15067;SDS011;7633;60.024;18.770;2023-04-30T08:56:25;0.60;;;0.60;;
15067;SDS011;7633;60.024;18.770;2023-04-30T08:58:51;0.30;;;0.30;;
15067;SDS011;7633;60.024;18.770;2023-04-30T09:01:16;1.20;;;0.60;;
15067;SDS011;7633;60.024;18.770;2023-04-30T09:03:41;0.73;;;0.73;;
15067;SDS011;7633;60.024;18.770;2023-04-30T09:06:07;0.60;;;0.60;;
15067;SDS011;7633;60.024;18.770;2023-04-30T09:08:45;1.20;;;0.67;;
15067;SDS011;7633;60.024;18.770;2023-04-30T09:11:27;1.00;;;0.80;;
15067;SDS011;7633;60.024;18.770;2023-04-30T09:13:59;0.70;;;0.70;;
15067;SDS011;7633;60.024;18.770;2023-04-30T09:16:26;0.90;;;0.90;;
15067;SDS011;7633;60.024;18.770;2023-04-30T09:18:51;2.73;;;0.70;;
15067;SDS011;7633;60.024;18.770;2023-04-30T09:21:28;0.40;;;0.40;;
15067;SDS011;7633;60.024;18.770;2023-04-30T09:23:56;0.60;;;0.60;;
15067;SDS011;7633;60.024;18.770;2023-04-30T09:26:25;1.90;;;0.90;;
15067;SDS011;7633;60.024;18.770;2023-04-30T09:28:55;1.27;;;0.93;;
15067;SDS011;7633;60.024;18.770;2023-04-30T09:31:21;1.13;;;0.90;;
15067;SDS011;7633;60.024;18.770;2023-04-30T09:33:46;0.77;;;0.77;;
15067;SDS011;7633;60.024;18.770;2023-04-30T09:36:12;0.47;;;0.47;;
15067;SDS011;7633;60.024;18.770;2023-04-30T09:38:37;0.93;;;0.70;;
15067;SDS011;7633;60.024;18.770;2023-04-30T09:41:03;1.03;;;0.60;;
15067;SDS011;7633;60.024;18.770;2023-04-30T09:43:29;0.77;;;0.50;;
15067;SDS011;7633;60.024;18.770;2023-04-30T09:45:56;0.60;;;0.60;;
15067;SDS011;7633;60.024;18.770;2023-04-30T09:48:22;0.97;;;0.60;;
15067;SDS011;7633;60.024;18.770;2023-04-30T09:50:48;0.77;;;0.70;;
15067;SDS011;7633;60.024;18.770;2023-04-30T09:53:14;0.87;;;0.60;;
15067;SDS011;7633;60.024;18.770;2023-04-30T09:55:45;0.60;;;0.50;;
15067;SDS011;7633;60.024;18.770;2023-04-30T09:58:12;0.60;;;0.60;;
15067;SDS011;7633;60.024;18.770;2023-04-30T10:00:38;0.93;;;0.60;;
15067;SDS011;7633;60.024;18.770;2023-04-30T10:03:05;1.00;;;0.60;;
15067;SDS011;7633;60.024;18.770;2023-04-30T10:05:36;1.07;;;0.80;;
15067;SDS011;7633;60.024;18.770;2023-04-30T10:08:02;1.67;;;0.90;;
15067;SDS011;7633;60.024;18.770;2023-04-30T10:10:28;0.80;;;0.70;;
15067;SDS011;7633;60.024;18.770;2023-04-30T10:12:58;0.90;;;0.50;;
15067;SDS011;7633;60.024;18.770;2023-04-30T10:15:27;0.63;;;0.63;;
15067;SDS011;7633;60.024;18.770;2023-04-30T10:17:56;1.53;;;0.80;;
15067;SDS011;7633;60.024;18.770;2023-04-30T10:20:21;0.80;;;0.80;;
15067;SDS011;7633;60.024;18.770;2023-04-30T10:22:48;0.67;;;0.67;;
15067;SDS011;7633;60.024;18.770;2023-04-30T10:25:13;0.90;;;0.73;;
15067;SDS011;7633;60.024;18.770;2023-04-30T10:27:40;0.70;;;0.70;;
15067;SDS011;7633;60.024;18.770;2023-04-30T10:30:06;0.73;;;0.70;;
15067;SDS011;7633;60.024;18.770;2023-04-30T10:32:37;0.60;;;0.60;;
15067;SDS011;7633;60.024;18.770;2023-04-30T10:35:13;1.17;;;0.80;;
15067;SDS011;7633;60.024;18.770;2023-04-30T10:37:47;2.30;;;0.70;;
15067;SDS011;7633;60.024;18.770;2023-04-30T10:40:15;0.60;;;0.60;;
15067;SDS011;7633;60.024;18.770;2023-04-30T10:42:47;0.60;;;0.60;;
15067;SDS011;7633;60.024;18.770;2023-04-30T10:45:14;0.52;;;0.50;;
15067;SDS011;7633;60.024;18.770;2023-04-30T10:47:43;0.70;;;0.60;;
15067;SDS011;7633;60.024;18.770;2023-04-30T10:50:10;0.70;;;0.60;;
15067;SDS011;7633;60.024;18.770;2023-04-30T10:52:36;0.88;;;0.70;;
15067;SDS011;7633;60.024;18.770;2023-04-30T10:55:06;0.50;;;0.50;;
15067;SDS011;7633;60.024;18.770;2023-04-30T10:57:37;0.65;;;0.63;;
15067;SDS011;7633;60.024;18.770;2023-04-30T11:02:40;1.25;;;0.40;;
15067;SDS011;7633;60.024;18.770;2023-04-30T11:05:20;0.63;;;0.50;;
15067;SDS011;7633;60.024;18.770;2023-04-30T11:07:56;0.28;;;0.28;;
15067;SDS011;7633;60.024;18.770;2023-04-30T11:10:22;0.50;;;0.50;;
15067;SDS011;7633;60.024;18.770;2023-04-30T11:12:48;0.40;;;0.40;;
15067;SDS011;7633;60.024;18.770;2023-04-30T11:15:14;0.70;;;0.52;;
15067;SDS011;7633;60.024;18.770;2023-04-30T11:17:42;0.65;;;0.65;;
15067;SDS011;7633;60.024;18.770;2023-04-30T11:20:07;0.80;;;0.50;;
15067;SDS011;7633;60.024;18.770;2023-04-30T11:22:36;0.30;;;0.30;;
15067;SDS011;7633;60.024;18.770;2023-04-30T11:27:34;0.60;;;0.60;;
15067;SDS011;7633;60.024;18.770;2023-04-30T11:30:00;0.57;;;0.50;;
15067;SDS011;7633;60.024;18.770;2023-04-30T11:32:31;1.30;;;0.40;;
15067;SDS011;7633;60.024;18.770;2023-04-30T11:34:57;0.60;;;0.60;;
15067;SDS011;7633;60.024;18.770;2023-04-30T11:37:28;0.30;;;0.30;;
15067;SDS011;7633;60.024;18.770;2023-04-30T11:39:55;0.60;;;0.60;;
15067;SDS011;7633;60.024;18.770;2023-04-30T11:42:21;0.50;;;0.50;;
15067;SDS011;7633;60.024;18.770;2023-04-30T11:44:46;0.40;;;0.40;;
15067;SDS011;7633;60.024;18.770;2023-04-30T11:47:12;0.50;;;0.50;;
15067;SDS011;7633;60.024;18.770;2023-04-30T11:49:38;0.60;;;0.50;;
15067;SDS011;7633;60.024;18.770;2023-04-30T11:52:03;0.80;;;0.60;;
15067;SDS011;7633;60.024;18.770;2023-04-30T11:54:32;0.82;;;0.55;;
15067;SDS011;7633;60.024;18.770;2023-04-30T11:56:57;1.05;;;0.68;;
15067;SDS011;7633;60.024;18.770;2023-04-30T11:59:28;1.10;;;0.60;;
15067;SDS011;7633;60.024;18.770;2023-04-30T12:01:53;0.70;;;0.50;;
15067;SDS011;7633;60.024;18.770;2023-04-30T12:04:19;0.50;;;0.50;;
15067;SDS011;7633;60.024;18.770;2023-04-30T12:06:44;1.20;;;0.80;;
15067;SDS011;7633;60.024;18.770;2023-04-30T12:09:10;0.50;;;0.50;;
15067;SDS011;7633;60.024;18.770;2023-04-30T12:11:37;0.40;;;0.40;;
15067;SDS011;7633;60.024;18.770;2023-04-30T12:14:03;1.30;;;1.20;;
15067;SDS011;7633;60.024;18.770;2023-04-30T12:19:04;1.08;;;0.70;;
15067;SDS011;7633;60.024;18.770;2023-04-30T12:21:30;1.00;;;0.90;;
15067;SDS011;7633;60.024;18.770;2023-04-30T12:23:55;1.70;;;1.60;;
15067;SDS011;7633;60.024;18.770;2023-04-30T12:26:21;2.17;;;2.05;;
15067;SDS011;7633;60.024;18.770;2023-04-30T12:28:47;2.20;;;2.00;;
15067;SDS011;7633;60.024;18.770;2023-04-30T12:31:13;4.82;;;4.07;;
15067;SDS011;7633;60.024;18.770;2023-04-30T12:33:42;3.95;;;3.65;;
15067;SDS011;7633;60.024;18.770;2023-04-30T12:36:09;3.00;;;2.63;;
15067;SDS011;7633;60.024;18.770;2023-04-30T12:38:35;4.35;;;3.95;;
15067;SDS011;7633;60.024;18.770;2023-04-30T12:41:03;6.25;;;5.65;;
15067;SDS011;7633;60.024;18.770;2023-04-30T12:43:29;6.68;;;6.05;;
15067;SDS011;7633;60.024;18.770;2023-04-30T12:45:56;2.80;;;2.33;;
15067;SDS011;7633;60.024;18.770;2023-04-30T12:48:22;3.35;;;2.40;;
15067;SDS011;7633;60.024;18.770;2023-04-30T12:53:17;1.20;;;1.10;;
15067;SDS011;7633;60.024;18.770;2023-04-30T12:55:42;1.05;;;0.80;;
15067;SDS011;7633;60.024;18.770;2023-04-30T13:00:42;0.80;;;0.73;;
15067;SDS011;7633;60.024;18.770;2023-04-30T13:03:08;0.57;;;0.57;;
15067;SDS011;7633;60.024;18.770;2023-04-30T13:05:33;0.95;;;0.60;;
15067;SDS011;7633;60.024;18.770;2023-04-30T13:08:02;0.50;;;0.50;;
15067;SDS011;7633;60.024;18.770;2023-04-30T13:10:32;0.60;;;0.50;;
15067;SDS011;7633;60.024;18.770;2023-04-30T13:12:57;0.40;;;0.40;;
15067;SDS011;7633;60.024;18.770;2023-04-30T13:15:23;0.68;;;0.60;;
15067;SDS011;7633;60.024;18.770;2023-04-30T13:17:49;0.50;;;0.50;;
15067;SDS011;7633;60.024;18.770;2023-04-30T13:20:15;0.70;;;0.70;;
15067;SDS011;7633;60.024;18.770;2023-04-30T13:22:41;1.88;;;0.80;;
15067;SDS011;7633;60.024;18.770;2023-04-30T13:25:06;1.35;;;1.13;;
15067;SDS011;7633;60.024;18.770;2023-04-30T13:27:32;1.35;;;0.95;;
15067;SDS011;7633;60.024;18.770;2023-04-30T13:29:57;1.50;;;1.40;;
15067;SDS011;7633;60.024;18.770;2023-04-30T13:32:23;2.35;;;2.15;;
15067;SDS011;7633;60.024;18.770;2023-04-30T13:34:48;1.73;;;1.60;;
15067;SDS011;7633;60.024;18.770;2023-04-30T13:37:16;0.93;;;0.82;;
15067;SDS011;7633;60.024;18.770;2023-04-30T13:39:41;1.25;;;1.15;;
15067;SDS011;7633;60.024;18.770;2023-04-30T13:42:07;1.13;;;1.10;;
15067;SDS011;7633;60.024;18.770;2023-04-30T13:44:32;1.55;;;1.20;;
15067;SDS011;7633;60.024;18.770;2023-04-30T13:46:58;1.27;;;1.10;;
15067;SDS011;7633;60.024;18.770;2023-04-30T13:49:23;0.90;;;0.90;;
15067;SDS011;7633;60.024;18.770;2023-04-30T13:51:49;1.55;;;1.00;;
15067;SDS011;7633;60.024;18.770;2023-04-30T13:54:14;0.70;;;0.70;;
15067;SDS011;7633;60.024;18.770;2023-04-30T13:56:40;1.05;;;0.85;;
15067;SDS011;7633;60.024;18.770;2023-04-30T13:59:06;0.77;;;0.77;;
15067;SDS011;7633;60.024;18.770;2023-04-30T14:01:31;0.80;;;0.80;;
15067;SDS011;7633;60.024;18.770;2023-04-30T14:03:58;1.17;;;0.68;;
15067;SDS011;7633;60.024;18.770;2023-04-30T14:06:23;1.20;;;0.80;;
15067;SDS011;7633;60.024;18.770;2023-04-30T14:08:49;1.10;;;1.00;;
15067;SDS011;7633;60.024;18.770;2023-04-30T14:11:14;1.30;;;1.20;;
15067;SDS011;7633;60.024;18.770;2023-04-30T14:13:40;1.25;;;1.08;;
15067;SDS011;7633;60.024;18.770;2023-04-30T14:16:05;1.00;;;0.90;;
15067;SDS011;7633;60.024;18.770;2023-04-30T14:18:31;0.60;;;0.60;;
15067;SDS011;7633;60.024;18.770;2023-04-30T14:20:56;1.13;;;0.90;;
15067;SDS011;7633;60.024;18.770;2023-04-30T14:23:22;1.27;;;1.00;;
15067;SDS011;7633;60.024;18.770;2023-04-30T14:25:47;1.20;;;1.10;;
15067;SDS011;7633;60.024;18.770;2023-04-30T14:28:12;2.60;;;2.40;;
15067;SDS011;7633;60.024;18.770;2023-04-30T14:30:38;0.93;;;0.85;;
15067;SDS011;7633;60.024;18.770;2023-04-30T14:33:04;0.55;;;0.55;;
15067;SDS011;7633;60.024;18.770;2023-04-30T14:35:29;0.32;;;0.32;;
15067;SDS011;7633;60.024;18.770;2023-04-30T14:37:54;0.50;;;0.50;;
15067;SDS011;7633;60.024;18.770;2023-04-30T14:40:20;1.15;;;0.70;;
15067;SDS011;7633;60.024;18.770;2023-04-30T14:42:45;1.25;;;1.00;;
15067;SDS011;7633;60.024;18.770;2023-04-30T14:45:11;0.68;;;0.50;;
15067;SDS011;7633;60.024;18.770;2023-04-30T14:47:36;1.25;;;0.90;;
15067;SDS011;7633;60.024;18.770;2023-04-30T14:50:01;1.13;;;1.02;;
15067;SDS011;7633;60.024;18.770;2023-04-30T14:52:27;0.73;;;0.73;;
15067;SDS011;7633;60.024;18.770;2023-04-30T14:54:52;0.63;;;0.63;;
15067;SDS011;7633;60.024;18.770;2023-04-30T14:57:18;1.05;;;0.88;;
15067;SDS011;7633;60.024;18.770;2023-04-30T14:59:44;0.50;;;0.50;;
15067;SDS011;7633;60.024;18.770;2023-04-30T15:02:09;0.40;;;0.40;;
15067;SDS011;7633;60.024;18.770;2023-04-30T15:04:35;0.73;;;0.63;;
15067;SDS011;7633;60.024;18.770;2023-04-30T15:07:00;0.40;;;0.40;;
15067;SDS011;7633;60.024;18.770;2023-04-30T15:09:26;0.50;;;0.30;;
15067;SDS011;7633;60.024;18.770;2023-04-30T15:11:52;0.40;;;0.40;;
15067;SDS011;7633;60.024;18.770;2023-04-30T15:14:17;0.20;;;0.20;;
15067;SDS011;7633;60.024;18.770;2023-04-30T15:16:43;0.30;;;0.30;;
15067;SDS011;7633;60.024;18.770;2023-04-30T15:19:09;0.40;;;0.40;;